createdAt,value
2023-04-15T00:01:59.192Z,4.69
2023-04-15T00:04:27.991Z,4.63
2023-04-15T00:06:55.265Z,4.64
2023-04-15T00:09:22.973Z,4.55
2023-04-15T00:11:50.765Z,4.57
2023-04-15T00:14:17.983Z,4.68
2023-04-15T00:16:45.206Z,4.66
2023-04-15T00:19:13.255Z,4.65
2023-04-15T00:21:40.721Z,4.68
2023-04-15T00:24:08.498Z,4.94
2023-04-15T00:26:35.974Z,4.94
2023-04-15T00:29:03.589Z,4.75
2023-04-15T00:31:31.776Z,4.66
2023-04-15T00:33:59.810Z,4.73
2023-04-15T00:36:27.076Z,4.73
2023-04-15T00:38:54.683Z,4.69
2023-04-15T00:41:23.211Z,4.81
2023-04-15T00:43:50.473Z,4.93
2023-04-15T00:46:20.768Z,4.92
2023-04-15T00:48:48.443Z,5.01
2023-04-15T00:51:16.235Z,4.98
2023-04-15T00:53:43.838Z,4.91
2023-04-15T00:56:11.689Z,5.02
2023-04-15T00:58:38.951Z,4.96
2023-04-15T01:01:06.540Z,4.95
2023-04-15T01:03:34.638Z,4.99
2023-04-15T01:06:04.081Z,5.02
2023-04-15T01:08:31.911Z,5.16
2023-04-15T01:11:02.288Z,5.35
2023-04-15T01:13:31.314Z,5.19
2023-04-15T01:15:58.687Z,5.06
2023-04-15T01:18:26.336Z,5.08
2023-04-15T01:20:53.934Z,5.10
2023-04-15T01:23:24.329Z,5.12
2023-04-15T01:25:53.571Z,5.19
2023-04-15T01:28:21.399Z,5.13
2023-04-15T01:30:48.692Z,5.13
2023-04-15T01:33:16.305Z,5.21
2023-04-15T01:35:44.872Z,5.18
2023-04-15T01:38:13.737Z,5.29
2023-04-15T01:40:41.219Z,5.31
2023-04-15T01:43:08.343Z,5.32
2023-04-15T01:45:36.425Z,5.37
2023-04-15T01:48:04.896Z,5.33
2023-04-15T01:50:32.231Z,5.30
2023-04-15T01:52:59.318Z,5.27
2023-04-15T01:55:27.138Z,5.54
2023-04-15T01:57:54.272Z,5.37
2023-04-15T02:00:22.424Z,5.39
2023-04-15T02:02:49.992Z,5.33
2023-04-15T02:05:17.353Z,5.32
2023-04-15T02:07:48.568Z,5.31
2023-04-15T02:10:16.902Z,5.28
2023-04-15T02:12:44.313Z,5.44
2023-04-15T02:15:11.796Z,5.58
2023-04-15T02:17:39.255Z,5.61
2023-04-15T02:20:09.277Z,5.64
2023-04-15T02:22:36.420Z,5.71
2023-04-15T02:25:04.386Z,5.61
2023-04-15T02:27:32.952Z,5.83
2023-04-15T02:30:02.369Z,5.86
2023-04-15T02:32:30.152Z,5.97
2023-04-15T02:34:57.653Z,5.89
2023-04-15T02:37:27.282Z,6.02
2023-04-15T02:39:55.700Z,6.10
2023-04-15T02:42:23.325Z,6.17
2023-04-15T02:44:50.720Z,6.11
2023-04-15T02:47:18.993Z,6.11
2023-04-15T02:49:46.210Z,5.69
2023-04-15T02:52:14.078Z,5.57
2023-04-15T02:54:41.531Z,5.70
2023-04-15T02:57:08.908Z,5.54
2023-04-15T02:59:36.114Z,5.44
2023-04-15T03:02:03.823Z,5.43
2023-04-15T03:04:31.367Z,5.44
2023-04-15T03:06:58.556Z,5.38
2023-04-15T03:09:26.923Z,5.30
2023-04-15T03:11:54.891Z,5.41
2023-04-15T03:14:22.807Z,5.57
2023-04-15T03:16:52.048Z,5.47
2023-04-15T03:19:19.618Z,5.44
2023-04-15T03:21:46.763Z,5.42
2023-04-15T03:24:14.513Z,5.41
2023-04-15T03:26:41.698Z,5.48
2023-04-15T03:29:09.208Z,5.37
2023-04-15T03:31:37.133Z,5.50
2023-04-15T03:34:04.430Z,5.49
2023-04-15T03:36:34.899Z,5.46
2023-04-15T03:39:02.650Z,5.38
2023-04-15T03:41:29.966Z,5.43
2023-04-15T03:43:57.440Z,5.37
2023-04-15T03:46:25.031Z,5.42
2023-04-15T03:48:52.250Z,5.59
2023-04-15T03:51:19.560Z,5.55
2023-04-15T03:53:47.111Z,5.49
2023-04-15T03:56:14.293Z,5.55
2023-04-15T03:58:41.620Z,5.45
2023-04-15T04:01:09.970Z,5.54
2023-04-15T04:03:38.045Z,5.47
2023-04-15T04:06:05.289Z,5.46
2023-04-15T04:08:32.532Z,5.73
2023-04-15T04:11:00.285Z,5.76
2023-04-15T04:13:27.724Z,5.84
2023-04-15T04:15:54.964Z,6.04
2023-04-15T04:18:22.695Z,6.09
2023-04-15T04:20:50.066Z,6.03
2023-04-15T04:23:17.287Z,5.98
2023-04-15T04:25:44.784Z,6.05
2023-04-15T04:28:12.176Z,5.89
2023-04-15T04:30:39.837Z,5.99
2023-04-15T04:33:07.667Z,5.81
2023-04-15T04:35:37.724Z,5.75
2023-04-15T04:38:05.192Z,5.81
2023-04-15T04:40:32.642Z,5.84
2023-04-15T04:43:00.437Z,5.86
2023-04-15T04:45:27.675Z,5.92
2023-04-15T04:47:55.798Z,5.91
2023-04-15T04:50:23.053Z,6.04
2023-04-15T04:52:50.666Z,6.33
2023-04-15T04:55:18.366Z,6.62
2023-04-15T04:57:45.668Z,6.62
2023-04-15T05:00:14.143Z,6.49
2023-04-15T05:02:44.090Z,6.60
2023-04-15T05:05:12.140Z,6.66
2023-04-15T05:07:39.776Z,6.86
2023-04-15T05:10:08.342Z,6.99
2023-04-15T05:12:37.453Z,7.03
2023-04-15T05:15:06.547Z,6.99
2023-04-15T05:17:35.424Z,7.06
2023-04-15T05:20:03.490Z,7.30
2023-04-15T05:22:31.007Z,7.31
2023-04-15T05:24:58.647Z,7.65
2023-04-15T05:27:26.137Z,7.63
2023-04-15T05:29:53.370Z,7.78
2023-04-15T05:32:20.915Z,7.91
2023-04-15T05:34:48.187Z,7.71
2023-04-15T05:37:15.705Z,7.81
2023-04-15T05:39:43.243Z,7.79
2023-04-15T05:42:10.782Z,8.47
2023-04-15T05:44:38.064Z,8.89
2023-04-15T05:47:07.293Z,9.12
2023-04-15T05:49:34.565Z,9.53
2023-04-15T05:52:02.121Z,9.87
2023-04-15T05:54:29.961Z,10.14
2023-04-15T05:56:58.413Z,10.59
2023-04-15T05:59:26.028Z,12.17
2023-04-15T06:01:53.815Z,13.12
2023-04-15T06:04:22.003Z,15.00
2023-04-15T06:06:49.373Z,18.16
2023-04-15T06:09:19.643Z,19.39
2023-04-15T06:11:47.312Z,19.79
2023-04-15T06:14:14.767Z,20.35
2023-04-15T06:16:42.558Z,21.36
2023-04-15T06:19:10.065Z,20.29
2023-04-15T06:21:37.270Z,19.05
2023-04-15T06:24:04.578Z,16.79
2023-04-15T06:26:32.149Z,16.20
2023-04-15T06:28:59.727Z,14.48
2023-04-15T06:31:27.312Z,14.57
2023-04-15T06:33:54.931Z,15.10
2023-04-15T06:36:22.169Z,16.99
2023-04-15T06:38:49.286Z,18.19
2023-04-15T06:41:16.824Z,18.69
2023-04-15T06:43:44.822Z,18.71
2023-04-15T06:46:12.049Z,17.35
2023-04-15T06:48:39.883Z,16.45
2023-04-15T06:51:07.084Z,17.50
2023-04-15T06:53:35.676Z,17.49
2023-04-15T06:56:03.252Z,17.08
2023-04-15T06:58:30.579Z,17.58
2023-04-15T07:00:57.762Z,18.46
2023-04-15T07:03:25.299Z,18.47
2023-04-15T07:05:52.727Z,17.92
2023-04-15T07:08:20.700Z,19.15
2023-04-15T07:10:48.120Z,19.31
2023-04-15T07:13:15.279Z,20.18
2023-04-15T07:15:42.361Z,19.43
2023-04-15T07:18:09.935Z,19.43
2023-04-15T07:20:37.366Z,19.19
2023-04-15T07:23:04.467Z,17.67
2023-04-15T07:25:32.055Z,17.16
2023-04-15T07:27:59.264Z,16.90
2023-04-15T07:30:26.431Z,16.54
2023-04-15T07:32:54.608Z,15.32
2023-04-15T07:35:22.314Z,14.94
2023-04-15T07:37:49.589Z,13.45
2023-04-15T07:40:17.166Z,14.21
2023-04-15T07:42:44.529Z,14.65
2023-04-15T07:45:12.884Z,14.42
2023-04-15T07:47:41.716Z,15.20
2023-04-15T07:50:11.209Z,13.77
2023-04-15T07:52:41.384Z,13.92
2023-04-15T07:55:09.077Z,13.24
2023-04-15T07:57:36.977Z,13.23
2023-04-15T08:00:05.875Z,13.39
2023-04-15T08:02:40.647Z,13.48
2023-04-15T08:05:09.363Z,13.49
2023-04-15T08:07:38.474Z,13.04
2023-04-15T08:10:06.498Z,13.88
2023-04-15T08:12:33.967Z,14.14
2023-04-15T08:15:02.181Z,14.41
2023-04-15T08:17:29.559Z,14.67
2023-04-15T08:19:57.373Z,15.36
2023-04-15T08:22:24.628Z,13.86
2023-04-15T08:28:22.476Z,14.14
2023-04-15T08:34:20.417Z,14.44
2023-04-15T08:36:48.230Z,14.52
2023-04-15T08:39:15.596Z,13.06
2023-04-15T08:41:50.724Z,12.84
2023-04-15T08:44:18.766Z,12.57
2023-04-15T08:46:49.140Z,12.76
2023-04-15T08:49:18.198Z,13.18
2023-04-15T08:51:45.993Z,13.73
2023-04-15T08:54:13.535Z,13.22
2023-04-15T08:56:41.131Z,14.08
2023-04-15T08:59:09.890Z,14.34
2023-04-15T09:01:38.431Z,13.71
2023-04-15T09:04:08.277Z,14.04
2023-04-15T09:06:35.891Z,14.91
2023-04-15T09:09:04.393Z,14.84
2023-04-15T09:11:31.788Z,13.57
2023-04-15T09:13:59.280Z,13.70
2023-04-15T09:16:27.446Z,12.95
2023-04-15T09:18:55.086Z,13.78
2023-04-15T09:21:25.631Z,13.62
2023-04-15T09:24:00.659Z,13.15
2023-04-15T09:26:36.168Z,12.69
2023-04-15T09:29:11.025Z,13.39
2023-04-15T09:31:38.598Z,13.86
2023-04-15T09:37:36.950Z,14.09
2023-04-15T09:40:05.023Z,12.94
2023-04-15T09:42:32.660Z,12.80
2023-04-15T09:48:31.300Z,13.07
2023-04-15T09:54:37.403Z,12.74
2023-04-15T09:57:10.574Z,12.29
2023-04-15T09:59:38.281Z,12.58
2023-04-15T10:02:09.268Z,12.64
2023-04-15T10:04:40.784Z,12.29
2023-04-15T10:07:13.041Z,12.15
2023-04-15T10:09:40.994Z,12.21
2023-04-15T10:12:09.214Z,12.02
2023-04-15T10:14:38.888Z,11.85
2023-04-15T10:17:08.397Z,12.15
2023-04-15T10:19:37.710Z,12.27
2023-04-15T10:22:05.382Z,12.17
2023-04-15T10:24:33.445Z,12.36
2023-04-15T10:27:01.816Z,12.28
2023-04-15T10:29:29.525Z,12.31
2023-04-15T10:31:57.717Z,12.86
2023-04-15T10:37:55.467Z,12.56
2023-04-15T10:40:33.649Z,12.25
2023-04-15T10:43:02.481Z,12.01
2023-04-15T10:45:37.685Z,12.74
2023-04-15T10:51:41.877Z,12.52
2023-04-15T10:54:17.722Z,12.01
2023-04-15T10:56:45.568Z,12.12
2023-04-15T10:59:13.318Z,12.25
2023-04-15T11:02:05.656Z,12.35
2023-04-15T11:08:04.100Z,12.70
2023-04-15T11:13:52.597Z,12.69
2023-04-15T11:16:20.340Z,13.07
2023-04-15T11:18:55.945Z,12.76
2023-04-15T11:21:26.203Z,13.20
2023-04-15T11:23:53.530Z,12.87
2023-04-15T11:26:27.394Z,12.54
2023-04-15T11:28:57.067Z,11.87
2023-04-15T11:31:27.945Z,12.18
2023-04-15T11:33:58.260Z,12.22
2023-04-15T11:36:37.321Z,12.06
2023-04-15T11:39:07.670Z,12.54
2023-04-15T11:41:37.861Z,12.73
2023-04-15T11:44:16.322Z,12.78
2023-04-15T11:46:45.609Z,12.43
2023-04-15T11:49:26.618Z,12.88
2023-04-15T11:51:57.201Z,13.28
2023-04-15T11:54:26.665Z,13.09
2023-04-15T11:56:54.711Z,13.11
2023-04-15T11:59:21.855Z,12.60
2023-04-15T12:01:51.195Z,12.08
2023-04-15T12:04:25.560Z,12.40
2023-04-15T12:06:53.331Z,13.11
2023-04-15T12:09:22.143Z,13.11
2023-04-15T12:15:24.060Z,13.56
2023-04-15T12:21:23.818Z,13.54
2023-04-15T12:23:53.328Z,13.50
2023-04-15T12:26:36.166Z,13.13
2023-04-15T12:29:17.095Z,13.07
2023-04-15T12:31:49.977Z,12.53
2023-04-15T12:34:34.920Z,11.99
2023-04-15T12:37:03.917Z,11.88
2023-04-15T12:39:38.755Z,11.83
2023-04-15T12:42:07.112Z,12.21
2023-04-15T12:44:35.842Z,12.40
2023-04-15T12:47:09.014Z,12.81
2023-04-15T12:49:42.092Z,12.69
2023-04-15T12:52:16.034Z,12.52
2023-04-15T12:55:03.318Z,12.35
2023-04-15T12:57:30.926Z,12.60
2023-04-15T12:59:58.079Z,12.70
2023-04-15T13:06:05.887Z,12.58
2023-04-15T13:08:33.383Z,12.51
2023-04-15T13:11:01.634Z,12.99
2023-04-15T13:13:28.867Z,13.48
2023-04-15T13:16:02.363Z,14.03
2023-04-15T13:18:31.288Z,13.85
2023-04-15T13:20:59.050Z,14.17
2023-04-15T13:23:28.573Z,14.19
2023-04-15T13:29:29.001Z,13.94
2023-04-15T13:31:56.921Z,13.77
2023-04-15T13:34:26.520Z,13.41
2023-04-15T13:36:53.707Z,14.17
2023-04-15T13:39:21.223Z,14.68
2023-04-15T13:41:48.695Z,15.05
2023-04-15T13:44:16.300Z,14.94
2023-04-15T13:50:17.742Z,14.95
2023-04-15T13:52:48.331Z,14.50
2023-04-15T13:55:20.603Z,14.74
2023-04-15T13:57:50.682Z,14.70
2023-04-15T14:00:17.993Z,14.04
2023-04-15T14:02:46.135Z,13.75
2023-04-15T14:05:15.748Z,13.53
2023-04-15T14:07:45.245Z,13.47
2023-04-15T14:10:12.979Z,13.18
2023-04-15T14:12:40.639Z,13.58
2023-04-15T14:15:08.289Z,13.59
2023-04-15T14:17:36.335Z,13.49
2023-04-15T14:20:04.221Z,13.22
2023-04-15T14:22:33.782Z,13.29
2023-04-15T14:25:02.062Z,13.38
2023-04-15T14:27:29.379Z,13.22
2023-04-15T14:29:58.070Z,13.07
2023-04-15T14:32:27.382Z,12.91
2023-04-15T14:34:54.908Z,12.69
2023-04-15T14:40:55.686Z,12.63
2023-04-15T14:43:25.618Z,12.28
2023-04-15T14:45:54.056Z,12.34
2023-04-15T14:48:23.988Z,12.16
2023-04-15T14:50:52.979Z,11.93
2023-04-15T14:53:21.156Z,11.99
2023-04-15T14:55:48.335Z,11.92
2023-04-15T14:58:16.870Z,11.87
2023-04-15T15:00:44.909Z,11.84
2023-04-15T15:03:13.460Z,11.80
2023-04-15T15:05:45.209Z,11.88
2023-04-15T15:08:13.305Z,11.80
2023-04-15T15:10:49.348Z,11.77
2023-04-15T15:13:18.042Z,11.40
2023-04-15T15:15:46.064Z,11.40
2023-04-15T15:18:15.762Z,11.50
2023-04-15T15:20:43.622Z,11.46
2023-04-15T15:23:11.726Z,11.24
2023-04-15T15:25:39.342Z,11.29
2023-04-15T15:28:07.072Z,11.18
2023-04-15T15:30:37.006Z,11.23
2023-04-15T15:33:07.386Z,11.13
2023-04-15T15:35:35.096Z,10.96
2023-04-15T15:38:05.132Z,10.95
2023-04-15T15:40:32.353Z,10.73
2023-04-15T15:43:00.339Z,10.59
2023-04-15T15:48:59.274Z,10.60
2023-04-15T15:55:00.156Z,10.68
2023-04-15T15:57:28.357Z,10.72
2023-04-15T16:00:10.581Z,10.76
2023-04-15T16:05:12.113Z,10.70
2023-04-15T16:07:40.415Z,10.66
2023-04-15T16:10:11.255Z,10.37
2023-04-15T16:12:38.817Z,10.15
2023-04-15T16:15:07.216Z,10.27
2023-04-15T16:17:34.833Z,10.39
2023-04-15T16:20:08.363Z,10.36
2023-04-15T16:22:38.706Z,10.39
2023-04-15T16:25:09.288Z,10.70
2023-04-15T16:27:50.348Z,10.62
2023-04-15T16:30:25.147Z,10.56
2023-04-15T16:32:52.883Z,10.56
2023-04-15T16:35:20.664Z,10.45
2023-04-15T16:40:41.757Z,10.38
2023-04-15T16:43:11.708Z,10.28
2023-04-15T16:45:39.217Z,10.03
2023-04-15T16:48:07.338Z,10.05
2023-04-15T16:50:37.318Z,10.07
2023-04-15T16:53:08.667Z,10.04
2023-04-15T16:55:36.359Z,9.88
2023-04-15T16:58:07.985Z,9.81
2023-04-15T17:00:36.946Z,9.86
2023-04-15T17:03:05.791Z,9.90
2023-04-15T17:05:33.623Z,9.75
2023-04-15T17:08:01.481Z,9.73
2023-04-15T17:10:28.833Z,9.67
2023-04-15T17:12:57.281Z,9.60
2023-04-15T17:15:25.098Z,9.49
2023-04-15T17:17:54.127Z,9.44
2023-04-15T17:20:23.977Z,9.37
2023-04-15T17:22:53.529Z,9.36
2023-04-15T17:28:06.136Z,9.25
2023-04-15T17:30:33.957Z,9.20
2023-04-15T17:33:03.685Z,9.15
2023-04-15T17:35:52.709Z,8.94
2023-04-15T17:38:20.315Z,9.00
2023-04-15T17:40:48.364Z,8.98
2023-04-15T17:43:17.266Z,8.89
2023-04-15T17:45:47.688Z,8.86
2023-04-15T17:48:15.954Z,8.80
2023-04-15T17:50:44.230Z,8.76
2023-04-15T17:53:14.560Z,8.71
2023-04-15T17:55:43.368Z,8.66
2023-04-15T17:58:11.911Z,8.67
2023-04-15T18:00:40.046Z,8.69
2023-04-15T18:03:08.557Z,8.63
2023-04-15T18:05:42.428Z,8.61
2023-04-15T18:08:10.364Z,8.61
2023-04-15T18:10:39.284Z,8.59
2023-04-15T18:13:07.477Z,8.54
2023-04-15T18:15:36.873Z,8.45
2023-04-15T18:18:05.645Z,8.47
2023-04-15T18:20:33.636Z,8.42
2023-04-15T18:23:01.371Z,8.43
2023-04-15T18:25:38.635Z,8.35
2023-04-15T18:28:08.003Z,8.27
2023-04-15T18:30:36.272Z,8.23
2023-04-15T18:33:04.354Z,8.17
2023-04-15T18:35:33.365Z,8.09
2023-04-15T18:38:02.443Z,8.05
2023-04-15T18:40:29.815Z,7.97
2023-04-15T18:42:57.693Z,7.93
2023-04-15T18:45:26.433Z,7.89
2023-04-15T18:47:56.852Z,7.90
2023-04-15T18:50:32.569Z,7.92
2023-04-15T18:53:03.763Z,7.88
2023-04-15T18:55:31.460Z,7.80
2023-04-15T18:58:08.736Z,7.80
2023-04-15T19:00:41.175Z,7.70
2023-04-15T19:03:10.797Z,7.64
2023-04-15T19:05:39.465Z,7.62
2023-04-15T19:08:07.671Z,7.60
2023-04-15T19:10:36.130Z,7.56
2023-04-15T19:13:05.249Z,7.51
2023-04-15T19:15:33.510Z,7.50
2023-04-15T19:18:02.883Z,7.51
2023-04-15T19:20:33.097Z,7.43
2023-04-15T19:23:08.212Z,7.40
2023-04-15T19:25:40.198Z,7.45
2023-04-15T19:28:31.735Z,7.51
2023-04-15T19:31:01.797Z,7.47
2023-04-15T19:33:32.219Z,7.52
2023-04-15T19:36:06.546Z,7.57
2023-04-15T19:38:38.535Z,7.64
2023-04-15T19:41:08.273Z,7.59
2023-04-15T19:43:41.535Z,7.52
2023-04-15T19:46:10.377Z,7.50
2023-04-15T19:48:38.528Z,7.47
2023-04-15T19:51:09.305Z,7.53
2023-04-15T19:53:43.919Z,7.61
2023-04-15T19:56:12.522Z,7.69
2023-04-15T19:58:41.874Z,7.71
2023-04-15T20:01:12.753Z,7.71
2023-04-15T20:03:42.417Z,7.76
2023-04-15T20:06:10.583Z,7.64
2023-04-15T20:08:40.273Z,7.61
2023-04-15T20:11:10.701Z,7.66
2023-04-15T20:13:39.326Z,7.68
2023-04-15T20:16:18.093Z,7.70
2023-04-15T20:18:47.791Z,7.71
2023-04-15T20:28:36.664Z,7.74
2023-04-15T20:31:04.920Z,7.73
2023-04-15T20:33:32.827Z,7.64
2023-04-15T20:36:00.598Z,7.58
2023-04-15T20:38:29.178Z,7.58
2023-04-15T20:40:58.351Z,7.58
2023-04-15T20:43:26.762Z,7.54
2023-04-15T20:45:57.549Z,7.55
2023-04-15T20:48:26.508Z,7.56
2023-04-15T20:50:54.230Z,7.52
2023-04-15T20:53:22.728Z,7.56
2023-04-15T20:55:50.956Z,7.54
2023-04-15T20:58:19.184Z,7.57
2023-04-15T21:04:18.033Z,7.57
2023-04-15T21:10:05.153Z,7.50
2023-04-15T21:12:33.026Z,7.53
2023-04-15T21:15:00.485Z,7.60
2023-04-15T21:17:27.832Z,7.40
2023-04-15T21:19:55.774Z,7.44
2023-04-15T21:22:27.533Z,7.47
2023-04-15T21:24:54.821Z,7.44
2023-04-15T21:27:22.394Z,7.38
2023-04-15T21:29:49.646Z,7.36
2023-04-15T21:32:16.962Z,7.20
2023-04-15T21:34:44.537Z,7.15
2023-04-15T21:37:13.519Z,7.25
2023-04-15T21:39:40.751Z,7.32
2023-04-15T21:42:08.234Z,7.37
2023-04-15T21:44:35.359Z,7.40
2023-04-15T21:47:02.624Z,7.41
2023-04-15T21:49:30.297Z,7.45
2023-04-15T21:52:01.220Z,7.45
2023-04-15T21:54:28.723Z,7.37
2023-04-15T21:56:57.018Z,7.21
2023-04-15T21:59:24.242Z,7.27
2023-04-15T22:01:51.671Z,7.32
2023-04-15T22:04:19.317Z,7.38
2023-04-15T22:06:47.006Z,7.42
2023-04-15T22:09:16.987Z,7.47
2023-04-15T22:11:46.214Z,7.44
2023-04-15T22:14:13.990Z,7.39
2023-04-15T22:16:41.206Z,7.39
2023-04-15T22:19:09.972Z,7.41
2023-04-15T22:21:37.150Z,7.33
2023-04-15T22:24:34.048Z,7.35
2023-04-15T22:26:52.178Z,7.36
2023-04-15T22:29:19.373Z,7.37
2023-04-15T22:31:46.906Z,7.32
2023-04-15T22:34:22.002Z,7.36
2023-04-15T22:36:49.761Z,7.40
2023-04-15T22:39:18.291Z,7.32
2023-04-15T22:41:46.296Z,7.29
2023-04-15T22:44:13.583Z,7.28
2023-04-15T22:46:41.378Z,7.29
2023-04-15T22:49:09.687Z,7.34
2023-04-15T22:51:38.103Z,7.31
2023-04-15T22:54:05.677Z,7.25
2023-04-15T22:56:33.206Z,7.45
2023-04-15T22:59:00.505Z,7.28
2023-04-15T23:04:58.883Z,7.02
2023-04-15T23:10:57.653Z,7.21
2023-04-15T23:13:25.648Z,7.22
2023-04-15T23:15:52.823Z,7.10
2023-04-15T23:18:20.009Z,7.07
2023-04-15T23:20:47.559Z,7.08
2023-04-15T23:23:15.708Z,7.10
2023-04-15T23:25:42.926Z,7.06
2023-04-15T23:28:10.560Z,7.06
2023-04-15T23:30:38.293Z,6.92
2023-04-15T23:33:05.576Z,6.75
2023-04-15T23:35:32.998Z,6.81
2023-04-15T23:38:00.168Z,6.68
2023-04-15T23:40:27.430Z,6.72
2023-04-15T23:42:54.849Z,6.74
2023-04-15T23:45:22.138Z,6.73
2023-04-15T23:47:49.283Z,6.72
2023-04-15T23:50:17.071Z,6.70
2023-04-15T23:52:44.265Z,6.62
2023-04-15T23:55:11.412Z,6.60
2023-04-15T23:57:38.921Z,6.53
